Time;durP1;ratioP1;P1;durP2;ratioP2;P2;SDS_P1;SDS_P2;PMS_P1;PMS_P2;Temp;Humidity;BMP_temperature;BMP_pressure;BME280_temperature;BME280_humidity;BME280_pressure;Samples;Min_cycle;Max_cycle;Signal;HPM_P1;HPM_P2
2023/06/22 00:00:42;;;;;;;12.32;5.07;;;;;;;;;;5015697;28;20037;-72
2023/06/22 00:03:07;;;;;;;7.47;4.80;;;;;;;;;;5015763;28;20041;-71
2023/06/22 00:05:33;;;;;;;11.30;4.13;;;;;;;;;;5015575;28;20030;-71
2023/06/22 00:08:01;;;;;;;9.02;4.50;;;;;;;;;;5014738;28;20044;-71
2023/06/22 00:10:27;;;;;;;10.43;4.80;;;;;;;;;;5015684;28;20182;-71
2023/06/22 00:12:52;;;;;;;8.23;4.60;;;;;;;;;;5015721;28;20128;-71
2023/06/22 00:15:17;;;;;;;7.80;4.63;;;;;;;;;;5015719;28;20124;-71
2023/06/22 00:17:42;;;;;;;9.70;4.43;;;;;;;;;;5014491;28;20460;-71
2023/06/22 00:20:10;;;;;;;10.48;4.80;;;;;;;;;;5015059;28;20048;-71
2023/06/22 00:22:38;;;;;;;8.88;4.60;;;;;;;;;;5012122;28;20041;-72
2023/06/22 00:25:06;;;;;;;9.95;4.95;;;;;;;;;;5015197;28;20037;-72
2023/06/22 00:27:31;;;;;;;10.82;4.65;;;;;;;;;;5010031;28;20030;-72
2023/06/22 00:29:56;;;;;;;9.43;4.43;;;;;;;;;;5015689;28;20095;-71
2023/06/22 00:32:22;;;;;;;7.63;4.40;;;;;;;;;;5014982;28;20030;-72
2023/06/22 00:34:47;;;;;;;9.75;4.93;;;;;;;;;;5015540;28;20038;-71
2023/06/22 00:37:13;;;;;;;9.65;4.97;;;;;;;;;;5014483;28;20160;-71
2023/06/22 00:39:38;;;;;;;12.55;4.93;;;;;;;;;;5015346;28;20501;-71
2023/06/22 00:42:04;;;;;;;11.15;4.40;;;;;;;;;;5014966;28;20040;-71
2023/06/22 00:44:29;;;;;;;10.30;4.97;;;;;;;;;;5015070;28;20045;-71
2023/06/22 00:46:55;;;;;;;12.45;4.45;;;;;;;;;;5008235;28;20045;-71
2023/06/22 00:49:20;;;;;;;10.15;4.75;;;;;;;;;;5013897;28;20041;-71
2023/06/22 00:51:47;;;;;;;9.07;5.22;;;;;;;;;;5013754;28;20397;-72
2023/06/22 00:54:13;;;;;;;10.13;4.80;;;;;;;;;;5014955;28;20041;-72
2023/06/22 00:56:40;;;;;;;11.60;4.38;;;;;;;;;;5011863;28;20034;-72
2023/06/22 00:59:06;;;;;;;10.52;4.43;;;;;;;;;;5013337;28;20054;-71
2023/06/22 01:01:31;;;;;;;13.20;5.57;;;;;;;;;;5013741;28;20045;-72
2023/06/22 01:03:58;;;;;;;10.55;4.85;;;;;;;;;;5008150;28;20034;-71
2023/06/22 01:06:38;;;;;;;13.32;5.00;;;;;;;;;;5012980;28;20545;-71
2023/06/22 01:09:15;;;;;;;14.35;4.78;;;;;;;;;;4999624;28;20394;-72
2023/06/22 01:12:16;;;;;;;10.70;4.35;;;;;;;;;;5013568;28;20042;-71
2023/06/22 01:14:43;;;;;;;9.07;4.40;;;;;;;;;;5005798;28;20513;-71
2023/06/22 01:17:12;;;;;;;9.90;4.03;;;;;;;;;;4992784;28;20053;-71
2023/06/22 01:19:48;;;;;;;12.30;4.45;;;;;;;;;;5013109;28;20056;-72
2023/06/22 01:22:16;;;;;;;10.80;4.82;;;;;;;;;;5012150;28;20041;-71
2023/06/22 01:24:52;;;;;;;8.30;4.25;;;;;;;;;;5013290;28;20038;-72
2023/06/22 01:27:36;;;;;;;13.48;4.85;;;;;;;;;;5008319;28;20041;-71
2023/06/22 01:30:05;;;;;;;11.25;4.88;;;;;;;;;;5013922;28;20030;-71
2023/06/22 01:32:32;;;;;;;14.25;5.15;;;;;;;;;;5013880;28;20069;-71
2023/06/22 01:35:00;;;;;;;10.75;4.95;;;;;;;;;;5012985;28;20042;-71
2023/06/22 01:37:31;;;;;;;11.65;5.40;;;;;;;;;;5012854;28;20064;-71
2023/06/22 01:39:57;;;;;;;9.95;4.68;;;;;;;;;;5012897;28;20041;-72
2023/06/22 01:42:24;;;;;;;13.63;4.70;;;;;;;;;;5012458;28;20437;-71
2023/06/22 01:44:52;;;;;;;16.73;4.93;;;;;;;;;;5013885;28;20030;-72
2023/06/22 01:47:17;;;;;;;12.20;4.90;;;;;;;;;;5011630;28;20050;-71
2023/06/22 01:49:43;;;;;;;14.45;4.45;;;;;;;;;;5008174;28;20045;-71
2023/06/22 01:52:08;;;;;;;12.27;5.15;;;;;;;;;;5012554;28;20217;-71
2023/06/22 01:54:34;;;;;;;11.45;4.72;;;;;;;;;;5012738;28;20046;-71
2023/06/22 01:56:59;;;;;;;13.95;4.43;;;;;;;;;;5013551;28;20046;-71
2023/06/22 01:59:36;;;;;;;12.93;5.13;;;;;;;;;;5009360;28;20054;-71
2023/06/22 02:02:04;;;;;;;10.50;5.50;;;;;;;;;;5012674;28;20069;-72
2023/06/22 02:04:36;;;;;;;11.82;5.00;;;;;;;;;;5012524;28;20118;-71
2023/06/22 02:07:06;;;;;;;9.52;4.22;;;;;;;;;;5012312;28;20030;-71
2023/06/22 02:09:31;;;;;;;9.52;5.00;;;;;;;;;;5012489;28;20037;-71
2023/06/22 02:11:58;;;;;;;13.75;4.03;;;;;;;;;;5011999;28;20386;-71
2023/06/22 02:14:23;;;;;;;9.20;5.00;;;;;;;;;;5010918;28;20124;-71
2023/06/22 02:16:51;;;;;;;17.42;4.93;;;;;;;;;;5013476;28;20129;-72
2023/06/22 02:19:18;;;;;;;9.98;4.65;;;;;;;;;;5004423;28;20038;-71
2023/06/22 02:21:43;;;;;;;11.30;4.28;;;;;;;;;;5013351;28;20120;-72
2023/06/22 02:24:08;;;;;;;11.68;4.68;;;;;;;;;;5013329;28;20141;-71
2023/06/22 02:26:34;;;;;;;11.35;4.63;;;;;;;;;;5013304;28;20039;-71
2023/06/22 02:29:00;;;;;;;13.13;5.00;;;;;;;;;;5011350;28;20041;-71
2023/06/22 02:31:30;;;;;;;10.65;3.67;;;;;;;;;;5011937;28;20046;-71
2023/06/22 02:33:58;;;;;;;16.60;4.97;;;;;;;;;;5011939;28;20474;-72
2023/06/22 02:36:24;;;;;;;9.35;5.13;;;;;;;;;;5013202;28;20042;-71
2023/06/22 02:38:50;;;;;;;14.63;5.10;;;;;;;;;;5012520;28;20501;-71
2023/06/22 02:41:18;;;;;;;12.45;4.53;;;;;;;;;;5013094;28;20046;-71
2023/06/22 02:43:46;;;;;;;9.60;4.80;;;;;;;;;;5012717;28;20041;-71
2023/06/22 02:46:13;;;;;;;11.38;4.53;;;;;;;;;;5013138;28;20034;-71
2023/06/22 02:48:42;;;;;;;13.40;4.53;;;;;;;;;;5012687;28;20393;-71
2023/06/22 02:51:07;;;;;;;8.30;4.40;;;;;;;;;;5011449;28;20466;-71
2023/06/22 02:53:32;;;;;;;10.82;4.38;;;;;;;;;;5011707;28;20044;-71
2023/06/22 02:55:58;;;;;;;11.65;4.80;;;;;;;;;;5012980;28;20393;-71
2023/06/22 02:58:24;;;;;;;9.70;4.10;;;;;;;;;;5005901;28;20042;-71
2023/06/22 03:00:52;;;;;;;10.63;4.68;;;;;;;;;;5012857;28;20425;-72
2023/06/22 03:03:18;;;;;;;12.75;5.05;;;;;;;;;;5009465;28;20038;-71
2023/06/22 03:05:43;;;;;;;10.27;4.85;;;;;;;;;;5012952;28;20096;-71
2023/06/22 03:08:09;;;;;;;13.70;5.38;;;;;;;;;;5011297;28;20026;-71
2023/06/22 03:10:34;;;;;;;10.95;4.72;;;;;;;;;;5011949;28;20047;-71
2023/06/22 03:12:59;;;;;;;13.32;4.78;;;;;;;;;;5004458;28;20061;-71
2023/06/22 03:15:25;;;;;;;15.43;5.15;;;;;;;;;;5008962;28;20061;-72
2023/06/22 03:17:51;;;;;;;13.35;4.70;;;;;;;;;;5012583;28;20466;-71
2023/06/22 03:20:16;;;;;;;18.20;4.80;;;;;;;;;;5010769;28;20046;-71
2023/06/22 03:22:42;;;;;;;9.63;4.57;;;;;;;;;;5042722;28;20425;-71
2023/06/22 03:25:13;;;;;;;10.27;4.47;;;;;;;;;;5011419;28;20390;-71
2023/06/22 03:27:39;;;;;;;10.82;4.53;;;;;;;;;;5011195;28;20444;-71
2023/06/22 03:30:06;;;;;;;10.85;3.67;;;;;;;;;;5012092;28;20671;-71
2023/06/22 03:32:32;;;;;;;8.63;4.15;;;;;;;;;;5009316;28;20069;-71
2023/06/22 03:34:58;;;;;;;13.00;3.78;;;;;;;;;;5012540;28;20096;-71
2023/06/22 03:37:26;;;;;;;7.57;3.65;;;;;;;;;;5010903;28;20141;-71
2023/06/22 03:39:52;;;;;;;8.45;3.88;;;;;;;;;;5012187;28;20040;-71
2023/06/22 03:42:17;;;;;;;7.53;3.85;;;;;;;;;;5011119;28;20049;-71
2023/06/22 03:44:43;;;;;;;15.48;3.95;;;;;;;;;;5011278;28;20029;-72
2023/06/22 03:47:09;;;;;;;7.07;3.78;;;;;;;;;;5012837;28;20402;-71
2023/06/22 03:49:34;;;;;;;8.35;3.90;;;;;;;;;;5011802;28;20037;-71
2023/06/22 03:52:02;;;;;;;12.07;4.38;;;;;;;;;;5012226;28;20485;-72
2023/06/22 03:54:29;;;;;;;15.32;4.32;;;;;;;;;;5003726;28;20552;-71
2023/06/22 03:56:54;;;;;;;7.53;3.97;;;;;;;;;;5014221;28;20387;-71
2023/06/22 03:59:19;;;;;;;9.70;4.20;;;;;;;;;;5015801;28;20050;-71
2023/06/22 04:01:46;;;;;;;7.95;4.07;;;;;;;;;;5015858;28;20040;-71
2023/06/22 04:04:11;;;;;;;6.85;3.65;;;;;;;;;;5014279;28;20042;-71
2023/06/22 04:06:36;;;;;;;7.88;3.72;;;;;;;;;;5014815;28;20049;-72
2023/06/22 04:09:02;;;;;;;8.07;3.72;;;;;;;;;;5016022;28;20109;-71
2023/06/22 04:11:28;;;;;;;12.60;4.57;;;;;;;;;;5015786;28;20387;-72
2023/06/22 04:13:53;;;;;;;10.18;4.20;;;;;;;;;;5015792;28;20465;-71
2023/06/22 04:16:19;;;;;;;13.48;3.95;;;;;;;;;;5015793;28;20116;-72
2023/06/22 04:18:44;;;;;;;11.90;5.05;;;;;;;;;;5015696;28;20046;-72
2023/06/22 04:21:10;;;;;;;14.05;4.18;;;;;;;;;;5013270;28;20121;-72
2023/06/22 04:23:35;;;;;;;9.40;3.90;;;;;;;;;;5012345;28;20069;-71
2023/06/22 04:26:00;;;;;;;7.28;3.78;;;;;;;;;;5015292;28;20049;-72
2023/06/22 04:28:26;;;;;;;7.53;3.78;;;;;;;;;;5015415;28;20034;-72
2023/06/22 04:30:51;;;;;;;8.60;3.80;;;;;;;;;;5015166;28;20033;-72
2023/06/22 04:33:17;;;;;;;10.65;4.15;;;;;;;;;;5006695;28;20534;-72
2023/06/22 04:35:45;;;;;;;8.60;4.00;;;;;;;;;;5003509;28;20085;-71
2023/06/22 04:38:13;;;;;;;12.55;4.05;;;;;;;;;;5015500;28;20026;-72
2023/06/22 04:40:38;;;;;;;6.82;3.72;;;;;;;;;;5012526;28;20068;-72
2023/06/22 04:43:05;;;;;;;7.65;3.30;;;;;;;;;;5015281;28;20450;-72
2023/06/22 04:45:31;;;;;;;8.15;3.65;;;;;;;;;;5015324;28;20048;-72
2023/06/22 04:47:57;;;;;;;8.02;3.47;;;;;;;;;;5013951;28;20037;-72
2023/06/22 04:50:23;;;;;;;6.95;3.40;;;;;;;;;;5013424;28;20117;-71
2023/06/22 04:52:48;;;;;;;5.97;3.47;;;;;;;;;;5013545;28;20507;-72
2023/06/22 04:55:18;;;;;;;8.02;3.42;;;;;;;;;;5014944;28;20042;-71
2023/06/22 04:57:50;;;;;;;6.80;3.30;;;;;;;;;;5014671;28;20488;-72
2023/06/22 05:00:19;;;;;;;7.03;3.13;;;;;;;;;;5013272;28;20109;-71
2023/06/22 05:02:46;;;;;;;3.88;2.33;;;;;;;;;;5011655;28;20490;-71
2023/06/22 05:05:15;;;;;;;8.70;2.92;;;;;;;;;;5002645;28;20381;-71
2023/06/22 05:07:44;;;;;;;6.65;2.60;;;;;;;;;;5014308;28;20037;-71
2023/06/22 05:10:12;;;;;;;7.53;2.72;;;;;;;;;;5013811;28;20037;-72
2023/06/22 05:12:39;;;;;;;3.85;2.70;;;;;;;;;;5014098;28;20034;-71
2023/06/22 05:15:06;;;;;;;4.85;2.67;;;;;;;;;;5013474;28;20087;-72
2023/06/22 05:17:31;;;;;;;3.72;2.40;;;;;;;;;;5010148;28;20060;-72
2023/06/22 05:19:56;;;;;;;3.60;2.25;;;;;;;;;;5007594;28;20038;-72
2023/06/22 05:22:22;;;;;;;6.03;2.28;;;;;;;;;;5012393;28;20042;-72
2023/06/22 05:24:47;;;;;;;5.95;2.80;;;;;;;;;;5014297;28;20045;-72
2023/06/22 05:27:13;;;;;;;3.88;2.60;;;;;;;;;;5012949;28;20029;-72
2023/06/22 05:29:39;;;;;;;3.70;2.58;;;;;;;;;;5014602;28;20037;-72
2023/06/22 05:32:05;;;;;;;7.45;2.47;;;;;;;;;;5010413;28;20116;-72
2023/06/22 05:34:30;;;;;;;7.18;2.90;;;;;;;;;;5013097;28;20262;-72
2023/06/22 05:36:57;;;;;;;4.53;2.95;;;;;;;;;;5014166;28;20061;-71
2023/06/22 05:39:22;;;;;;;4.30;2.50;;;;;;;;;;5014268;28;20092;-71
2023/06/22 05:41:47;;;;;;;3.30;2.20;;;;;;;;;;5014139;28;20022;-72
2023/06/22 05:44:13;;;;;;;3.60;2.10;;;;;;;;;;5013971;28;20029;-72
2023/06/22 05:46:44;;;;;;;2.65;1.90;;;;;;;;;;5014145;28;20042;-72
2023/06/22 05:49:09;;;;;;;4.50;2.10;;;;;;;;;;5006360;28;20036;-72
2023/06/22 05:51:35;;;;;;;3.00;1.92;;;;;;;;;;5014011;28;20034;-71
2023/06/22 05:54:00;;;;;;;2.90;1.90;;;;;;;;;;5010738;28;20450;-72
2023/06/22 05:56:25;;;;;;;2.50;1.60;;;;;;;;;;5014037;28;20518;-72
2023/06/22 05:58:51;;;;;;;4.55;1.77;;;;;;;;;;5013487;28;20049;-72
2023/06/22 06:01:16;;;;;;;5.15;1.98;;;;;;;;;;5013407;28;20037;-72
2023/06/22 06:03:42;;;;;;;17.92;2.20;;;;;;;;;;5010443;28;20042;-72
2023/06/22 06:06:07;;;;;;;3.70;1.70;;;;;;;;;;5012597;28;20026;-72
2023/06/22 06:08:33;;;;;;;2.75;1.50;;;;;;;;;;5013500;28;20061;-72
2023/06/22 06:10:58;;;;;;;2.50;1.52;;;;;;;;;;5013596;28;20042;-72
2023/06/22 06:13:23;;;;;;;3.42;1.65;;;;;;;;;;5010584;28;20034;-72
2023/06/22 06:15:51;;;;;;;6.32;1.70;;;;;;;;;;5013537;28;20052;-71
2023/06/22 06:18:17;;;;;;;2.97;1.48;;;;;;;;;;5006761;28;20025;-72
2023/06/22 06:20:42;;;;;;;4.55;1.90;;;;;;;;;;5012236;28;20038;-72
2023/06/22 06:23:07;;;;;;;5.43;1.45;;;;;;;;;;5007954;28;20030;-72
2023/06/22 06:25:33;;;;;;;4.18;1.52;;;;;;;;;;5005795;28;20034;-72
2023/06/22 06:27:58;;;;;;;2.53;1.33;;;;;;;;;;5012918;28;20033;-72
2023/06/22 06:30:23;;;;;;;2.97;1.63;;;;;;;;;;5012771;28;20109;-72
2023/06/22 06:32:49;;;;;;;3.58;1.90;;;;;;;;;;5012847;28;20053;-72
2023/06/22 06:35:16;;;;;;;4.15;2.08;;;;;;;;;;5011486;28;20057;-72
2023/06/22 06:37:43;;;;;;;6.10;2.53;;;;;;;;;;5003516;28;20100;-72
2023/06/22 06:40:10;;;;;;;3.13;1.92;;;;;;;;;;5012314;28;20492;-70
2023/06/22 06:42:47;;;;;;;3.17;1.60;;;;;;;;;;5011604;28;20429;-71
2023/06/22 06:45:15;;;;;;;3.25;1.75;;;;;;;;;;5011712;28;20088;-70
2023/06/22 06:47:40;;;;;;;2.28;1.52;;;;;;;;;;5011405;28;20030;-72
2023/06/22 06:50:06;;;;;;;3.30;1.67;;;;;;;;;;5013135;28;20109;-72
2023/06/22 06:52:32;;;;;;;2.85;1.58;;;;;;;;;;5012689;28;20136;-73
2023/06/22 06:54:57;;;;;;;2.00;1.35;;;;;;;;;;5011844;28;20030;-72
2023/06/22 06:57:22;;;;;;;3.83;1.80;;;;;;;;;;5012984;28;20438;-72
2023/06/22 06:59:49;;;;;;;3.50;1.70;;;;;;;;;;5010079;28;20414;-72
2023/06/22 07:02:15;;;;;;;3.30;1.60;;;;;;;;;;5011345;28;20482;-72
2023/06/22 07:04:41;;;;;;;4.97;2.05;;;;;;;;;;5011410;28;20073;-72
2023/06/22 07:07:06;;;;;;;2.60;1.48;;;;;;;;;;5012992;28;20037;-72
2023/06/22 07:09:31;;;;;;;2.85;1.70;;;;;;;;;;5012600;28;20493;-72
2023/06/22 07:11:57;;;;;;;3.33;1.75;;;;;;;;;;5011420;28;20672;-72
2023/06/22 07:14:22;;;;;;;3.65;1.70;;;;;;;;;;5011566;28;20038;-70
2023/06/22 07:16:47;;;;;;;3.03;1.70;;;;;;;;;;5011513;28;20088;-71
2023/06/22 07:19:13;;;;;;;3.80;1.60;;;;;;;;;;5009588;28;20100;-70
2023/06/22 07:21:39;;;;;;;3.40;1.70;;;;;;;;;;5005823;28;20034;-70
2023/06/22 07:24:05;;;;;;;4.93;2.10;;;;;;;;;;5001664;28;20470;-71
2023/06/22 07:26:31;;;;;;;4.20;1.85;;;;;;;;;;5011070;28;20042;-70
2023/06/22 07:28:57;;;;;;;3.05;1.55;;;;;;;;;;5012613;28;20494;-70
2023/06/22 07:31:24;;;;;;;3.05;1.70;;;;;;;;;;5014335;28;20515;-70
2023/06/22 07:33:49;;;;;;;2.75;1.48;;;;;;;;;;5004919;28;20046;-71
2023/06/22 07:36:14;;;;;;;3.65;1.90;;;;;;;;;;5016482;28;20037;-70
2023/06/22 07:38:40;;;;;;;2.90;1.65;;;;;;;;;;5016119;28;20034;-70
2023/06/22 07:41:05;;;;;;;5.28;1.90;;;;;;;;;;5016180;28;20034;-72
2023/06/22 07:43:33;;;;;;;2.53;1.67;;;;;;;;;;5016414;28;20089;-71
2023/06/22 07:45:58;;;;;;;3.22;1.85;;;;;;;;;;5015621;28;20041;-71
2023/06/22 07:48:23;;;;;;;7.47;1.70;;;;;;;;;;5014087;28;20042;-71
2023/06/22 07:50:49;;;;;;;4.15;1.80;;;;;;;;;;5006992;28;20042;-71
2023/06/22 07:53:14;;;;;;;2.88;1.70;;;;;;;;;;5015907;28;20079;-71
2023/06/22 07:55:40;;;;;;;4.00;1.98;;;;;;;;;;5016129;28;20497;-71
2023/06/22 07:58:05;;;;;;;2.95;1.83;;;;;;;;;;5015532;28;20049;-71
2023/06/22 08:00:30;;;;;;;3.05;1.90;;;;;;;;;;5013417;28;20034;-71
2023/06/22 08:02:56;;;;;;;3.28;1.67;;;;;;;;;;5015681;28;20042;-71
2023/06/22 08:05:21;;;;;;;5.97;2.00;;;;;;;;;;5015270;28;20068;-70
2023/06/22 08:07:48;;;;;;;3.30;2.10;;;;;;;;;;5015461;28;20052;-71
2023/06/22 08:10:13;;;;;;;2.95;1.67;;;;;;;;;;5010841;28;20128;-71
2023/06/22 08:12:39;;;;;;;3.05;1.80;;;;;;;;;;5002659;28;20049;-70
2023/06/22 08:15:06;;;;;;;4.57;1.92;;;;;;;;;;4999821;28;20030;-71
2023/06/22 08:17:31;;;;;;;4.30;2.03;;;;;;;;;;5012436;28;20041;-70
2023/06/22 08:19:56;;;;;;;5.55;1.90;;;;;;;;;;5010769;28;20394;-71
2023/06/22 08:22:22;;;;;;;3.58;2.00;;;;;;;;;;5011872;28;20042;-70
2023/06/22 08:24:47;;;;;;;5.47;2.00;;;;;;;;;;5010994;28;20124;-70
2023/06/22 08:27:13;;;;;;;3.78;1.90;;;;;;;;;;5004318;28;20034;-71
2023/06/22 08:29:39;;;;;;;5.50;2.08;;;;;;;;;;5012261;28;21294;-70
2023/06/22 08:32:05;;;;;;;4.20;2.13;;;;;;;;;;5011583;28;20053;-71
2023/06/22 08:34:30;;;;;;;5.32;2.03;;;;;;;;;;5012072;28;20061;-70
2023/06/22 08:36:55;;;;;;;3.20;2.05;;;;;;;;;;5012238;28;20072;-70
2023/06/22 08:39:21;;;;;;;4.15;2.20;;;;;;;;;;5015541;28;20073;-71
2023/06/22 08:41:47;;;;;;;3.72;2.40;;;;;;;;;;5014010;28;20038;-71
2023/06/22 08:44:13;;;;;;;3.85;1.95;;;;;;;;;;5015364;28;20389;-70
2023/06/22 08:46:40;;;;;;;3.53;1.77;;;;;;;;;;5014867;28;20045;-71
2023/06/22 08:49:06;;;;;;;6.80;2.00;;;;;;;;;;5011757;28;20053;-70
2023/06/22 08:51:31;;;;;;;2.97;2.00;;;;;;;;;;5014949;28;20375;-71
2023/06/22 08:53:57;;;;;;;3.90;2.20;;;;;;;;;;5014637;28;20038;-70
2023/06/22 08:56:22;;;;;;;4.18;2.03;;;;;;;;;;5015258;28;20088;-70
2023/06/22 08:58:47;;;;;;;4.10;2.10;;;;;;;;;;5014762;28;20046;-70
2023/06/22 09:01:15;;;;;;;3.50;1.90;;;;;;;;;;5014604;28;20490;-70
2023/06/22 09:03:40;;;;;;;2.92;1.70;;;;;;;;;;5014987;28;20564;-71
2023/06/22 09:06:06;;;;;;;3.33;1.90;;;;;;;;;;5014950;28;20174;-70
2023/06/22 09:08:32;;;;;;;3.38;2.00;;;;;;;;;;5015018;28;20057;-70
2023/06/22 09:10:57;;;;;;;4.85;2.15;;;;;;;;;;5014712;28;20478;-71
2023/06/22 09:13:22;;;;;;;3.67;1.90;;;;;;;;;;5014740;28;20084;-70
2023/06/22 09:15:48;;;;;;;4.55;2.35;;;;;;;;;;5014581;28;20034;-71
2023/06/22 09:18:14;;;;;;;4.25;1.98;;;;;;;;;;5014814;28;20496;-70
2023/06/22 09:20:39;;;;;;;5.32;1.92;;;;;;;;;;5014396;28;20514;-70
2023/06/22 09:23:04;;;;;;;2.80;1.90;;;;;;;;;;5014784;28;20629;-70
2023/06/22 09:25:30;;;;;;;4.88;2.03;;;;;;;;;;5012903;28;20042;-70
2023/06/22 09:27:55;;;;;;;5.28;2.38;;;;;;;;;;5000240;28;20083;-71
2023/06/22 09:30:22;;;;;;;2.92;1.83;;;;;;;;;;5010907;28;20050;-71
2023/06/22 09:32:47;;;;;;;3.45;1.80;;;;;;;;;;5009994;28;20117;-71
2023/06/22 09:35:13;;;;;;;3.65;1.80;;;;;;;;;;4997598;28;20420;-71
2023/06/22 09:37:39;;;;;;;8.80;2.00;;;;;;;;;;5011368;28;20037;-70
2023/06/22 09:40:08;;;;;;;3.65;1.92;;;;;;;;;;5010183;28;20088;-70
2023/06/22 09:42:34;;;;;;;2.75;1.65;;;;;;;;;;5011060;28;20038;-70
2023/06/22 09:45:01;;;;;;;4.05;1.98;;;;;;;;;;5010939;28;20037;-71
2023/06/22 09:47:27;;;;;;;2.85;2.00;;;;;;;;;;5010557;28;20120;-71
2023/06/22 09:49:52;;;;;;;2.97;1.70;;;;;;;;;;5011640;28;20538;-70
2023/06/22 09:52:17;;;;;;;3.22;1.63;;;;;;;;;;4997851;28;20490;-70
2023/06/22 09:54:42;;;;;;;3.75;2.30;;;;;;;;;;5003162;28;20088;-70
2023/06/22 09:57:08;;;;;;;3.63;2.00;;;;;;;;;;5009959;28;20524;-70
2023/06/22 09:59:33;;;;;;;4.32;1.80;;;;;;;;;;5009943;28;20050;-71
2023/06/22 10:01:59;;;;;;;5.55;2.00;;;;;;;;;;4996946;28;20128;-70
2023/06/22 10:04:25;;;;;;;2.63;1.63;;;;;;;;;;5008175;28;20041;-70
2023/06/22 10:06:50;;;;;;;3.80;1.90;;;;;;;;;;5008153;28;20037;-71
2023/06/22 10:09:16;;;;;;;4.55;1.70;;;;;;;;;;5007583;28;20045;-70
2023/06/22 10:11:42;;;;;;;4.85;1.80;;;;;;;;;;5009841;28;20060;-70
2023/06/22 10:14:10;;;;;;;5.35;1.80;;;;;;;;;;5009606;28;20034;-70
2023/06/22 10:16:36;;;;;;;3.17;1.58;;;;;;;;;;5009080;28;20379;-70
2023/06/22 10:19:02;;;;;;;5.10;1.73;;;;;;;;;;5009890;28;20029;-72
2023/06/22 10:21:28;;;;;;;4.20;1.63;;;;;;;;;;5010103;28;20046;-72
2023/06/22 10:23:53;;;;;;;4.60;2.00;;;;;;;;;;5008930;28;20046;-72
2023/06/22 10:26:19;;;;;;;4.03;2.03;;;;;;;;;;5009295;28;20034;-72
2023/06/22 10:28:44;;;;;;;4.30;2.05;;;;;;;;;;5009288;28;20038;-72
2023/06/22 10:31:10;;;;;;;3.38;1.95;;;;;;;;;;5009461;28;20060;-72
2023/06/22 10:33:35;;;;;;;3.60;1.80;;;;;;;;;;5009190;28;20471;-72
2023/06/22 10:36:00;;;;;;;3.40;1.80;;;;;;;;;;5008442;28;20046;-72
2023/06/22 10:38:26;;;;;;;4.20;1.90;;;;;;;;;;5007839;28;20048;-72
2023/06/22 10:40:51;;;;;;;2.65;1.70;;;;;;;;;;5009472;28;20029;-73
2023/06/22 10:43:16;;;;;;;5.88;1.75;;;;;;;;;;5007829;28;20083;-72
2023/06/22 10:45:42;;;;;;;4.00;1.60;;;;;;;;;;5009269;28;20156;-72
2023/06/22 10:48:07;;;;;;;3.80;1.70;;;;;;;;;;5009138;28;20053;-72
2023/06/22 10:50:32;;;;;;;2.72;1.50;;;;;;;;;;5008753;28;20060;-72
2023/06/22 10:52:58;;;;;;;2.50;1.60;;;;;;;;;;5009621;28;20034;-72
2023/06/22 10:55:23;;;;;;;3.42;1.50;;;;;;;;;;5008829;28;20045;-73
2023/06/22 10:57:49;;;;;;;3.08;1.80;;;;;;;;;;5009287;28;20054;-72
2023/06/22 11:00:15;;;;;;;3.00;1.83;;;;;;;;;;5009320;28;20038;-72
2023/06/22 11:02:41;;;;;;;4.25;2.10;;;;;;;;;;5009319;28;20041;-72
2023/06/22 11:05:06;;;;;;;3.67;2.00;;;;;;;;;;5006058;28;20493;-72
2023/06/22 11:07:32;;;;;;;5.53;1.83;;;;;;;;;;5009445;28;20069;-72
2023/06/22 11:09:58;;;;;;;5.40;2.00;;;;;;;;;;5005103;28;20185;-72
2023/06/22 11:12:23;;;;;;;4.57;1.85;;;;;;;;;;5009337;28;20034;-72
2023/06/22 11:14:51;;;;;;;3.80;1.90;;;;;;;;;;4992548;28;20525;-72
2023/06/22 11:17:17;;;;;;;4.43;1.90;;;;;;;;;;5004348;28;20050;-72
2023/06/22 11:19:42;;;;;;;3.25;1.70;;;;;;;;;;5007722;28;20512;-72
2023/06/22 11:22:07;;;;;;;4.65;1.85;;;;;;;;;;5009871;28;20048;-72
2023/06/22 11:24:33;;;;;;;5.72;1.98;;;;;;;;;;5009200;28;20041;-72
2023/06/22 11:26:58;;;;;;;4.85;1.80;;;;;;;;;;5007733;28;20593;-72
2023/06/22 11:29:24;;;;;;;3.35;1.73;;;;;;;;;;5010417;28;20490;-72
2023/06/22 11:31:49;;;;;;;3.15;1.80;;;;;;;;;;5005606;28;20042;-72
2023/06/22 11:34:15;;;;;;;4.47;1.75;;;;;;;;;;5006915;28;20569;-72
2023/06/22 11:36:41;;;;;;;5.93;1.85;;;;;;;;;;5009307;28;20113;-72
2023/06/22 11:39:09;;;;;;;3.72;2.00;;;;;;;;;;5008360;28;20121;-72
2023/06/22 11:41:34;;;;;;;3.83;1.70;;;;;;;;;;5009429;28;20048;-72
2023/06/22 11:44:00;;;;;;;3.13;1.63;;;;;;;;;;5009993;28;20030;-72
2023/06/22 11:46:25;;;;;;;2.97;1.67;;;;;;;;;;5011072;28;20121;-72
2023/06/22 11:48:50;;;;;;;4.82;1.80;;;;;;;;;;5010861;28;20048;-72
2023/06/22 11:51:16;;;;;;;2.97;1.70;;;;;;;;;;4990315;28;20129;-72
2023/06/22 11:53:41;;;;;;;3.13;1.75;;;;;;;;;;4998489;28;20797;-72
2023/06/22 11:56:07;;;;;;;3.97;1.60;;;;;;;;;;5008130;28;20057;-72
2023/06/22 11:58:32;;;;;;;3.38;1.65;;;;;;;;;;4997155;28;20061;-72
2023/06/22 12:00:57;;;;;;;5.00;1.90;;;;;;;;;;5005266;28;20031;-72
2023/06/22 12:03:23;;;;;;;3.47;1.63;;;;;;;;;;5001000;28;20034;-72
2023/06/22 12:05:50;;;;;;;8.75;1.70;;;;;;;;;;5006360;28;20046;-72
2023/06/22 12:08:15;;;;;;;5.03;1.75;;;;;;;;;;5002005;28;20052;-72
2023/06/22 12:10:40;;;;;;;4.10;1.58;;;;;;;;;;5005211;28;20486;-72
2023/06/22 12:13:06;;;;;;;4.28;1.80;;;;;;;;;;5007393;28;20471;-72
2023/06/22 12:15:31;;;;;;;2.53;1.67;;;;;;;;;;5005073;28;20164;-72
2023/06/22 12:17:56;;;;;;;3.03;1.63;;;;;;;;;;5013649;28;20052;-72
2023/06/22 12:20:22;;;;;;;3.22;1.77;;;;;;;;;;5010189;28;20121;-72
2023/06/22 12:22:47;;;;;;;4.30;1.45;;;;;;;;;;5013078;28;20112;-72
2023/06/22 12:25:12;;;;;;;5.38;1.70;;;;;;;;;;5014158;28;20088;-72
2023/06/22 12:27:38;;;;;;;3.63;1.88;;;;;;;;;;5011840;28;20048;-72
2023/06/22 12:30:04;;;;;;;2.95;1.70;;;;;;;;;;5012874;28;20037;-72
2023/06/22 12:32:30;;;;;;;4.65;1.73;;;;;;;;;;5009460;28;20029;-72
2023/06/22 12:34:55;;;;;;;4.00;1.60;;;;;;;;;;5004754;28;20040;-72
2023/06/22 12:37:20;;;;;;;4.80;1.60;;;;;;;;;;5011709;28;20045;-72
2023/06/22 12:39:46;;;;;;;4.55;2.00;;;;;;;;;;5011855;28;20042;-72
2023/06/22 12:42:11;;;;;;;3.33;1.63;;;;;;;;;;5009779;28;20096;-72
2023/06/22 12:44:40;;;;;;;4.32;2.35;;;;;;;;;;5008110;28;20033;-72
2023/06/22 12:47:06;;;;;;;6.07;1.67;;;;;;;;;;5012749;28;20060;-72
2023/06/22 12:49:32;;;;;;;3.20;1.75;;;;;;;;;;5011729;28;20038;-72
2023/06/22 12:51:57;;;;;;;3.40;1.63;;;;;;;;;;5010848;28;20088;-72
2023/06/22 12:54:22;;;;;;;4.90;2.00;;;;;;;;;;5007645;28;20050;-72
2023/06/22 12:56:49;;;;;;;3.28;1.90;;;;;;;;;;5005026;28;20121;-72
2023/06/22 12:59:17;;;;;;;4.18;2.15;;;;;;;;;;5011908;28;20056;-71
2023/06/22 13:01:43;;;;;;;4.80;2.30;;;;;;;;;;5008723;28;20025;-72
2023/06/22 13:04:11;;;;;;;4.40;2.08;;;;;;;;;;5008725;28;20132;-72
2023/06/22 13:06:36;;;;;;;12.73;2.10;;;;;;;;;;5010362;28;20117;-72
2023/06/22 13:09:01;;;;;;;5.15;2.03;;;;;;;;;;5010020;28;20181;-71
2023/06/22 13:11:27;;;;;;;6.00;2.38;;;;;;;;;;5012196;28;20042;-72
2023/06/22 13:13:52;;;;;;;4.10;1.90;;;;;;;;;;5011722;28;20128;-72
2023/06/22 13:16:17;;;;;;;4.18;2.30;;;;;;;;;;5011831;28;20033;-72
2023/06/22 13:18:42;;;;;;;3.40;2.10;;;;;;;;;;5012558;28;20053;-72
2023/06/22 13:21:08;;;;;;;5.90;1.95;;;;;;;;;;4996972;28;20049;-72
2023/06/22 13:23:33;;;;;;;4.78;1.60;;;;;;;;;;5008552;28;20053;-72
2023/06/22 13:26:00;;;;;;;2.72;1.67;;;;;;;;;;5012124;28;20046;-72
2023/06/22 13:28:25;;;;;;;3.72;1.60;;;;;;;;;;5005486;28;20378;-72
2023/06/22 13:30:50;;;;;;;3.03;1.67;;;;;;;;;;5011407;28;20038;-72
2023/06/22 13:33:16;;;;;;;5.65;2.20;;;;;;;;;;5012016;28;20037;-72
2023/06/22 13:35:45;;;;;;;3.67;1.73;;;;;;;;;;5007504;28;20045;-72
2023/06/22 13:38:10;;;;;;;3.20;1.80;;;;;;;;;;4987266;28;20063;-72
2023/06/22 13:40:37;;;;;;;5.20;1.70;;;;;;;;;;5011491;28;20497;-72
2023/06/22 13:43:03;;;;;;;2.75;1.40;;;;;;;;;;5011991;28;20030;-72
2023/06/22 13:45:28;;;;;;;3.92;2.45;;;;;;;;;;5011862;28;20041;-72
2023/06/22 13:47:54;;;;;;;4.30;1.90;;;;;;;;;;5011990;28;20038;-72
2023/06/22 13:50:19;;;;;;;4.13;1.67;;;;;;;;;;5011256;28;20133;-72
2023/06/22 13:52:44;;;;;;;3.38;1.58;;;;;;;;;;5009927;28;20131;-72
2023/06/22 13:55:10;;;;;;;3.72;1.60;;;;;;;;;;4998138;28;20038;-72
2023/06/22 13:57:35;;;;;;;2.60;1.60;;;;;;;;;;5008736;28;20057;-72
2023/06/22 14:00:01;;;;;;;2.92;1.63;;;;;;;;;;5009855;28;20034;-72
2023/06/22 14:02:27;;;;;;;3.85;1.70;;;;;;;;;;5009550;28;20133;-72
2023/06/22 14:04:53;;;;;;;3.55;1.50;;;;;;;;;;5008442;28;20553;-72
2023/06/22 14:07:21;;;;;;;3.40;1.85;;;;;;;;;;5008441;28;20121;-72
2023/06/22 14:09:46;;;;;;;4.50;1.77;;;;;;;;;;5003913;28;20061;-72
2023/06/22 14:12:12;;;;;;;2.67;1.50;;;;;;;;;;5009233;28;20488;-72
2023/06/22 14:14:38;;;;;;;4.72;2.03;;;;;;;;;;5010347;28;20448;-72
2023/06/22 14:17:04;;;;;;;5.60;1.70;;;;;;;;;;5005978;28;20048;-72
2023/06/22 14:19:29;;;;;;;4.22;1.63;;;;;;;;;;5010669;28;20470;-72
2023/06/22 14:21:54;;;;;;;4.03;1.92;;;;;;;;;;5010890;28;20034;-72
2023/06/22 14:24:20;;;;;;;7.45;1.60;;;;;;;;;;5007648;28;20038;-72
2023/06/22 14:26:45;;;;;;;5.28;1.80;;;;;;;;;;5010071;28;20057;-72
2023/06/22 14:29:10;;;;;;;5.95;1.52;;;;;;;;;;5010447;28;20091;-72
2023/06/22 14:31:36;;;;;;;3.03;1.65;;;;;;;;;;5010329;28;20049;-72
2023/06/22 14:34:03;;;;;;;2.67;1.52;;;;;;;;;;5007369;28;20037;-72